Tiempo atmosférico en la estación meteorológica de Amorebieta--Etxano, Bizkaia (100 m.)



Fecha
DESCASC
Temp. máxima en grados centígrados (hora)
DESCASC
Temp. mínima en grados centígrados (hora)
DESCASC
Temp. media en grados centígrados
DESCASC
Racha de viento máxima en m/sg (hora)
DESCASC
Velocidad máxima media en intervalos de 10 minutos(hora)
DESCASC
Precipitaciones diarias en mm
DESCASC
Precipitaciones de 00:00 a 06:00 en mm
DESCASC
Precipitaciones de 06:00 a 12:00 en mm
DESCASC
Precipitaciones de 12:00 a 18:00 en mm
DESCASC
Precipitaciones de 18:00 a 24:00 en mm
DESCASC
25-02-2021 17.2 (14:30) 11.3 (23:59) 14.3 10.28 (08:20) 4.72 (15:40) 0 0 0 0 0
24-02-2021 21.3 (15:20) 12.9 (08:30) 17.1 13.33 (00:30) 6.39 (00:30) 0 0 0 0 0
23-02-2021 19.4 (15:30) 5.3 (01:20) 12.3 14.72 (13:20) 6.39 (13:20) 0 0 0 0 0
22-02-2021 10.8 (15:20) 5.9 (23:59) 8.4 8.33 (14:10) 3.89 (14:10) 24 15.2 7.8 1 0
21-02-2021 18 (00:00) 7.4 (00:00) 12.7 16.94 (02:40) 7.78 (02:50) 19.8 0 0 0 19.8
20-02-2021 22.3 (16:20) 16.9 (00:00) 19.6 24.17 (04:10) 8.61 (03:10) 0 0 0 0 0
19-02-2021 21.5 (16:20) 7.6 (00:00) 14.5 17.22 (13:00) 8.61 (13:10) 0 0 0 0 0
18-02-2021 18.6 (11:50) 8.6 (00:00) 13.6 10.56 (05:10) 6.39 (00:40) 0 0 0 0 0
17-02-2021 19 (14:10) 5.7 (00:00) 12.3 13.06 (13:20) 6.39 (14:50) 0 0 0 0 0
16-02-2021 17.3 (12:50) 7.7 (00:00) 12.5 11.94 (01:40) 6.39 (03:10) 2.2 0 0 0 2.2
15-02-2021 17.5 (14:50) 10.4 (00:00) 13.9 18.06 (22:00) 9.44 (22:00) 0 0 0 0 0
14-02-2021 18.8 (15:20) 3.9 (00:00) 11.3 16.67 (20:20) 8.89 (22:00) 0 0 0 0 0
13-02-2021 15.8 (16:10) 6.2 (00:00) 11 2.78 (15:30) 1.67 (16:40) 0 0 0 0 0
12-02-2021 17.1 (02:40) 9.2 (00:00) 13.2 15.56 (16:00) 9.17 (16:20) 19.6 1.6 4.6 13.4 0
11-02-2021 19.1 (16:40) 3.7 (00:00) 11.4 6.39 (12:20) 3.61 (12:20) 0 0 0 0 0
10-02-2021 13.1 (16:20) 6.7 (00:00) 9.9 10 (17:10) 6.11 (17:10) 0.6 0.2 0.2 0.2 0
09-02-2021 14.9 (12:10) 7 (00:00) 10.9 15.56 (08:30) 6.94 (08:30) 1 0 0 1 0
08-02-2021 14.8 (13:30) 7.2 (00:00) 11 9.44 (14:40) 4.44 (17:30) 4.4 0.6 3.4 0.4 0
07-02-2021 12.1 (14:50) 5.5 (00:00) 8.8 6.11 (15:50) 2.78 (13:50) 3.2 1.8 0 0 1.4
06-02-2021 10.8 (10:30) 6 (00:00) 8.4 11.39 (13:20) 7.5 (11:40) 28.6 1.2 18.4 7 2
05-02-2021 11.3 (15:50) 9.4 (00:00) 10.3 5 (08:00) 2.5 (08:00) 0.4 0 0.4 0 0
04-02-2021 15.2 (14:30) 9.4 (00:00) 12.3 8.33 (19:20) 5 (19:20) 5.4 0 0 0 5.4
03-02-2021 19.2 (15:10) 14.7 (00:00) 17 14.17 (12:10) 7.22 (12:10) 0 0 0 0 0
02-02-2021 20.6 (13:50) 8 (00:00) 14.3 12.5 (14:20) 6.39 (14:20) 0.6 0 0 0.6 0
01-02-2021 15.5 (16:00) 11 (00:00) 13.3 13.33 (00:50) 7.78 (00:50) 2.6 0.2 0 0 2.4
31-01-2021 14.6 (16:20) 9.3 (00:00) 12 17.22 (04:20) 9.44 (03:30) 4.2 0 3.4 0.8 0
30-01-2021 18 (01:20) 10.2 (00:00) 14.1 14.72 (23:10) 9.17 (23:40) 3.4 0.6 0.4 2.2 0.2

Gráficas

Temp. máximas Temp. mínimas Temp. medias Precipitaciones Rachas de viento máximas Velocidades máximas media en intervalos de 10 minutos

Datos horarios

Fecha y hora oficial Temperatura (ºC) Velocidad del viento (km/h) Dirección del viento Racha (km/h) Dirección de racha Precipitación (mm) Presión (hPa) Tendencia (hPa) Humedad (%)
2021-02-28 23:00:00 9.6 4 Noroeste 9 Noroeste 2.2 -- -- 97
2021-02-28 22:00:00 9.7 3 Noroeste 10 Norte 2.6 -- -- 95
2021-02-28 21:00:00 10.7 4 Sudeste 14 Sudeste 0.6 -- -- 86
2021-02-28 20:00:00 10.9 4 Sudeste 14 Este 0 -- -- 82
2021-02-28 19:00:00 11 0 Calma 10 Sudeste 0 -- -- 83
2021-02-28 18:00:00 11.9 6 Este 15 Este 0 -- -- 73
2021-02-28 17:00:00 12.1 6 Sudeste 22 Este 0 -- -- 73
2021-02-28 16:00:00 12.2 5 Sudeste 19 Este 0 -- -- 74
2021-02-28 15:00:00 11.7 4 Este 14 Este 0 -- -- 74
2021-02-28 14:00:00 11.7 3 Este 9 Norte 0 -- -- 75
2021-02-28 13:00:00 11.1 5 Norte 11 Nordeste 0 -- -- 77
2021-02-28 12:00:00 9.9 2 Norte 5 Nordeste 0 -- -- 83
2021-02-28 11:00:00 8.4 0 Calma 3 Sudoeste 0 -- -- 91
2021-02-28 10:00:00 7.5 0 Calma 4 Este 0 -- -- 94
2021-02-28 09:00:00 6.4 2 Sur 5 Sudeste 0 -- -- 97
2021-02-28 08:00:00 5.7 3 Este 6 Este 0 -- -- 97
2021-02-28 07:00:00 5.2 2 Sudeste 6 Sudeste 0 -- -- 95
2021-02-28 06:00:00 5.9 0 Calma 3 Sudeste 0 -- -- 94
2021-02-28 05:00:00 7.1 2 Sudeste 4 Sudeste 0 -- -- 91
2021-02-28 04:00:00 7.6 2 Sudeste 3 Sur 0 -- -- 91
2021-02-28 03:00:00 8.1 0 Calma 5 Norte 0 -- -- 88
2021-02-28 02:00:00 8.3 2 Norte 8 Noroeste 0 -- -- 85
2021-02-28 01:00:00 8.5 4 Norte 10 Norte 0 -- -- 84
2021-02-28 00:00:00 8.3 4 Norte 9 Noroeste 0 -- -- 86
2021-02-27 23:00:00 8.3 0 Calma 8 Oeste 0 -- -- 85
2021-02-27 22:00:00 8.4 5 Oeste 8 Sudoeste 0 -- -- 84
2021-02-27 21:00:00 8.3 0 Calma 10 Noroeste 0 -- -- 83
2021-02-27 20:00:00 8.7 4 Norte 12 Noroeste 0 -- -- 80
2021-02-27 19:00:00 8.5 5 Norte 18 Norte 0 -- -- 79
2021-02-27 18:00:00 9.2 5 Norte 21 Norte 0 -- -- 73
2021-02-27 17:00:00 9.9 12 Norte 25 Norte 0 -- -- 69
2021-02-27 16:00:00 11.5 14 Noroeste 24 Oeste 0 -- -- 72
2021-02-27 15:00:00 11.4 9 Noroeste 22 Norte 0 -- -- 75
2021-02-27 14:00:00 11.4 13 Norte 20 Norte 0 -- -- 77
2021-02-27 13:00:00 11.8 9 Norte 19 Norte 0 -- -- 76
2021-02-27 12:00:00 11.1 6 Norte 21 Noroeste 0 -- -- 83
2021-02-27 11:00:00 10.2 12 Norte 24 Norte 0 -- -- 87
2021-02-27 10:00:00 10.1 12 Norte 22 Norte 0 -- -- 91
2021-02-27 09:00:00 10.2 6 Norte 17 Norte 0 -- -- 93
2021-02-27 08:00:00 10.2 3 Noroeste 8 Noroeste 0 -- -- 95
2021-02-27 07:00:00 10.2 4 Noroeste 8 Noroeste 0 -- -- 94
2021-02-27 06:00:00 10.3 2 Oeste 7 Noroeste 0 -- -- 92
2021-02-27 05:00:00 10.3 3 Norte 5 Norte 0 -- -- 92
2021-02-27 04:00:00 10.5 3 Norte 8 Noroeste 0 -- -- 90
2021-02-27 03:00:00 10.6 0 Calma 7 Noroeste 0 -- -- 90
2021-02-27 02:00:00 10.5 4 Oeste 9 Sudoeste 0 -- -- 92
2021-02-27 01:00:00 10.6 0 Calma 9 Norte 0 -- -- 92
2021-02-27 00:00:00 10.8 3 Noroeste 11 Norte 0 -- -- 93
2021-02-26 23:00:00 10.8 3 Norte 8 Norte 0 -- -- 91
2021-02-26 22:00:00 11 0 Calma 4 Sudeste 0 -- -- 87
2021-02-26 21:00:00 11.3 0 Calma 4 Nordeste 0 -- -- 85
2021-02-26 20:00:00 11.5 3 Sur 15 Nordeste 0 -- -- 85
2021-02-26 19:00:00 11.7 9 Norte 18 Norte 0 -- -- 82
2021-02-26 18:00:00 12.3 6 Noroeste 13 Noroeste 0 -- -- 83
2021-02-26 17:00:00 12.5 3 Norte 14 Noroeste 0 -- -- 81
2021-02-26 16:00:00 12.8 8 Noroeste 15 Noroeste 0 -- -- 81
2021-02-26 15:00:00 12.9 10 Norte 15 Noroeste 0 -- -- 80
2021-02-26 14:00:00 13 8 Norte 13 Noroeste 0 -- -- 82
2021-02-26 13:00:00 12.5 4 Norte 13 Norte 0 -- -- 84
2021-02-26 12:00:00 12.2 6 Norte 11 Norte 0 -- -- 85
2021-02-26 11:00:00 11.6 6 Norte 12 Norte 0 -- -- 90
2021-02-26 10:00:00 11.3 5 Norte 9 Noroeste 0 -- -- 92
2021-02-26 09:00:00 10.9 4 Norte 11 Norte 0 -- -- 93
2021-02-26 08:00:00 10.9 0 Calma 12 Norte 0 -- -- 93
2021-02-26 07:00:00 11.1 4 Norte 9 Norte 0 -- -- 93
2021-02-26 06:00:00 11 4 Noroeste 7 Noroeste 0 -- -- 94
2021-02-26 05:00:00 10.7 0 Calma 4 Nordeste 0 -- -- 93
2021-02-26 04:00:00 10.7 2 Sur 3 Sudoeste 0 -- -- 93
2021-02-26 03:00:00 10.6 0 Calma 4 Norte 0 -- -- 92
2021-02-26 02:00:00 11 0 Calma 5 Norte 0 -- -- 91
2021-02-26 01:00:00 10.9 4 Norte 6 Norte 0 -- -- 91
2021-02-26 00:00:00 11.3 0 Calma 8 Norte 0 -- -- 88
2021-02-25 23:00:00 11.9 5 Norte 8 Noroeste 0 -- -- 86
2021-02-25 22:00:00 12.1 4 Norte 7 Norte 0 -- -- 86
2021-02-25 21:00:00 12.4 0 Calma 6 Oeste 0 -- -- 85
2021-02-25 20:00:00 12.5 5 Norte 15 Norte 0 -- -- 84
2021-02-25 19:00:00 13 8 Norte 12 Noroeste 0 -- -- 83
2021-02-25 18:00:00 13.7 8 Norte 16 Noroeste 0 -- -- 80
2021-02-25 17:00:00 14.4 9 Noroeste 21 Noroeste 0 -- -- 77
2021-02-25 16:00:00 15.2 15 Noroeste 27 Noroeste 0 -- -- 73
2021-02-25 15:00:00 16.8 5 Norte 13 Noroeste 0 -- -- 57
2021-02-25 14:00:00 16.5 9 Sudoeste 21 Sur 0 -- -- 60
2021-02-25 13:00:00 16.2 3 Oeste 15 Este 0 -- -- 55
2021-02-25 12:00:00 15.6 7 Este 15 Norte 0 -- -- 56
2021-02-25 11:00:00 14.7 6 Sudeste 18 Sudeste 0 -- -- 61
2021-02-25 10:00:00 13.7 0 Calma 19 Sudeste 0 -- -- 66
2021-02-25 09:00:00 13.4 5 Este 37 Sudeste 0 -- -- 61
2021-02-25 08:00:00 13.3 13 Sudeste 31 Sudeste 0 -- -- 61
2021-02-25 07:00:00 13.4 12 Este 36 Este 0 -- -- 63
2021-02-25 06:00:00 13.5 13 Este 30 Este 0 -- -- 64
2021-02-25 05:00:00 12.9 4 Oeste 12 Noroeste 0 -- -- 69
2021-02-25 04:00:00 12.7 5 Noroeste 12 Sur 0 -- -- 74
2021-02-25 03:00:00 15 9 Sur 33 Sudeste 0 -- -- 64
2021-02-25 02:00:00 15.8 13 Sudeste 26 Sudeste 0 -- -- 62
2021-02-25 01:00:00 16.1 14 Sudeste 36 Sur 0 -- -- 63
2021-02-25 00:00:00 16.4 10 Sur 27 Sudeste 0 -- -- 62
2021-02-24 23:00:00 16.7 8 Sudeste 19 Sudeste 0 -- -- 61
2021-02-24 22:00:00 17.5 10 Sudeste 41 Sudeste 0 -- -- 55
2021-02-24 21:00:00 17.2 16 Sudeste 44 Sudeste 0 -- -- 58
2021-02-24 20:00:00 17.6 9 Sudeste 33 Sudeste 0 -- -- 57
2021-02-24 19:00:00 18.5 17 Sudeste 38 Sudeste 0 -- -- 53
2021-02-24 18:00:00 19.9 20 Sudeste 37 Sudeste 0 -- -- 50
2021-02-24 17:00:00 20.9 17 Sudeste 45 Sudeste 0 -- -- 46
2021-02-24 16:00:00 21.1 15 Sudeste 35 Sudeste 0 -- -- 44
2021-02-24 15:00:00 21.1 13 Sudeste 37 Sudeste 0 -- -- 46
2021-02-24 14:00:00 20.3 14 Sudeste 31 Sudeste 0 -- -- 47
2021-02-24 13:00:00 19.5 13 Sudeste 37 Sudeste 0 -- -- 50
2021-02-24 12:00:00 18 12 Sudeste 32 Sudeste 0 -- -- 50
2021-02-24 11:00:00 16.7 14 Sur 41 Sudeste 0 -- -- 52
2021-02-24 10:00:00 14.7 7 Sudeste 24 Sudeste 0 -- -- 59
2021-02-24 09:00:00 13.4 9 Sudeste 28 Sudeste 0 -- -- 64
2021-02-24 08:00:00 13.1 9 Sudeste 29 Sudeste 0 -- -- 66
2021-02-24 07:00:00 13.8 11 Sudeste 32 Sur 0 -- -- 63
2021-02-24 06:00:00 14.3 3 Sur 35 Sur 0 -- -- 58
2021-02-24 05:00:00 14.5 12 Sudeste 27 Este 0 -- -- 59
2021-02-24 04:00:00 15.2 12 Sudeste 31 Sur 0 -- -- 58
2021-02-24 03:00:00 15.1 12 Sudeste 41 Este 0 -- -- 59
2021-02-24 02:00:00 15 15 Sudeste 40 Sudeste 0 -- -- 60
2021-02-24 01:00:00 15 18 Sudeste 48 Sudeste 0 -- -- 60
2021-02-24 00:00:00 15.1 21 Sudeste 43 Sudeste 0 -- -- 59
2021-02-23 23:00:00 15.1 15 Sudeste 37 Sudeste 0 -- -- 59
2021-02-23 22:00:00 15.3 18 Sudeste 41 Sudeste 0 -- -- 57
2021-02-23 21:00:00 15.3 15 Sudeste 37 Sudeste 0 -- -- 56
2021-02-23 20:00:00 15.8 19 Sur 44 Sur 0 -- -- 54
2021-02-23 19:00:00 16.3 18 Sudeste 45 Sudeste 0 -- -- 52
2021-02-23 18:00:00 18.1 11 Sudeste 33 Sudeste 0 -- -- 49
2021-02-23 17:00:00 19.1 15 Sudeste 33 Sur 0 -- -- 48
2021-02-23 16:00:00 19.4 15 Sudeste 38 Sudeste 0 -- -- 47
2021-02-23 15:00:00 19.3 13 Sudeste 31 Sudeste 0 -- -- 47
2021-02-23 14:00:00 18.5 14 Sudeste 53 Sur 0 -- -- 50
2021-02-23 13:00:00 17.4 16 Sur 39 Sudeste 0 -- -- 51
2021-02-23 12:00:00 16 16 Sur 33 Sudeste 0 -- -- 55
2021-02-23 11:00:00 14.3 14 Sur 31 Sur 0 -- -- 58
2021-02-23 10:00:00 12.4 12 Sudeste 33 Sudeste 0 -- -- 64
2021-02-23 09:00:00 11 18 Sudeste 42 Sudeste 0 -- -- 68
2021-02-23 08:00:00 10.6 15 Sudeste 35 Sudeste 0 -- -- 69
2021-02-23 07:00:00 10.5 14 Sudeste 37 Este 0 -- -- 70
2021-02-23 06:00:00 10.1 14 Sudeste 42 Sudeste 0 -- -- 74
2021-02-23 05:00:00 10.1 12 Sudeste 44 Este 0 -- -- 75
2021-02-23 04:00:00 10 17 Este 35 Este 0 -- -- 76
2021-02-23 03:00:00 8 6 Sudeste 24 Este 0 -- -- 86
2021-02-23 02:00:00 5.6 3 Sur 8 Sur 0 -- -- 99
2021-02-23 01:00:00 5.6 3 Nordeste 9 Sudeste 0 -- -- 98
2021-02-23 00:00:00 5.9 3 Sur 8 Sudeste 0 -- -- 98
2021-02-22 23:00:00 6.4 3 Sur 7 Sudoeste 0 -- -- 96
2021-02-22 22:00:00 7.5 0 Calma 10 Sudeste 0 -- -- 95
2021-02-22 21:00:00 9 4 Sudeste 11 Sudeste 0 -- -- 95
2021-02-22 20:00:00 9.3 5 Sudeste 10 Sudeste 0 -- -- 94
2021-02-22 19:00:00 10.1 0 Calma 6 Este 0 -- -- 92
2021-02-22 18:00:00 10.5 0 Calma 5 Noroeste 0 -- -- 84
2021-02-22 17:00:00 10.6 4 Norte 10 Noroeste 0 -- -- 84
2021-02-22 16:00:00 10.1 9 Noroeste 23 Norte 0 -- -- 86
2021-02-22 15:00:00 10.7 9 Noroeste 30 Oeste 0.4 -- -- 87
2021-02-22 14:00:00 9.8 2 Noroeste 9 Norte 0.4 -- -- 95
2021-02-22 13:00:00 9.3 3 Norte 17 Oeste 0.2 -- -- 96
2021-02-22 12:00:00 8.8 4 Noroeste 11 Norte 1 -- -- 98
2021-02-22 11:00:00 8.3 2 Nordeste 12 Norte 1 -- -- 98
2021-02-22 10:00:00 8.1 3 Noroeste 12 Noroeste 1.2 -- -- 98
2021-02-22 09:00:00 7.6 5 Norte 13 Oeste 2 -- -- 98
2021-02-22 08:00:00 7.4 3 Noroeste 9 Norte 2.2 -- -- 97
2021-02-22 07:00:00 7.3 4 Norte 16 Oeste 0.4 -- -- 97
2021-02-22 06:00:00 7.2 9 Oeste 21 Oeste 1.2 -- -- 96
2021-02-22 05:00:00 6.7 5 Noroeste 13 Noroeste 3.2 -- -- 97
2021-02-22 04:00:00 6.8 5 Noroeste 15 Noroeste 1 -- -- 96
2021-02-22 03:00:00 6.9 8 Norte 13 Noroeste 1.8 -- -- 97
2021-02-22 02:00:00 6.9 4 Noroeste 17 Noroeste 4.6 -- -- 97
2021-02-22 01:00:00 7.1 11 Oeste 17 Noroeste 3.4 -- -- 94
2021-02-22 00:00:00 7.4 9 Noroeste 19 Oeste 4.6 -- -- 96
2021-02-21 23:00:00 7.9 11 Noroeste 26 Noroeste 7.8 -- -- 96
2021-02-21 22:00:00 8.4 9 Oeste 27 Oeste 5.8 -- -- 96
2021-02-21 21:00:00 9.2 11 Oeste 26 Noroeste 1.6 -- -- 95
2021-02-21 20:00:00 10 18 Noroeste 31 Noroeste 0 -- -- 91
2021-02-21 19:00:00 13.2 17 Noroeste 31 Noroeste 0 -- -- 77
2021-02-21 18:00:00 15.1 8 Sudeste 46 Sudeste 0 -- -- 64
2021-02-21 17:00:00 15.6 12 Sudeste 31 Sudeste 0 -- -- 59
2021-02-21 16:00:00 15.6 14 Sudeste 43 Sur 0 -- -- 58
2021-02-21 15:00:00 16.5 13 Sudeste 42 Sudeste 0 -- -- 52
2021-02-21 14:00:00 17.2 19 Este 49 Este 0 -- -- 46
2021-02-21 13:00:00 17.1 17 Sudeste 41 Sudeste 0 -- -- 44
2021-02-21 12:00:00 17.1 14 Sudeste 44 Sudeste 0 -- -- 43
2021-02-21 11:00:00 15.9 15 Sudeste 51 Este 0 -- -- 44
2021-02-21 10:00:00 14.7 22 Este 51 Sur 0 -- -- 48
2021-02-21 09:00:00 14.2 19 Sudeste 52 Sur 0 -- -- 50
2021-02-21 08:00:00 14 18 Sudeste 49 Sudeste 0 -- -- 50
2021-02-21 07:00:00 14.2 19 Sudeste 50 Sudeste 0 -- -- 50
2021-02-21 06:00:00 14.1 23 Sudeste 53 Sudeste 0 -- -- 50
2021-02-21 05:00:00 14.1 15 Sudeste 39 Sudeste 0 -- -- 51
2021-02-21 04:00:00 14.9 24 Sudeste 58 Sudeste 0 -- -- 48
2021-02-21 03:00:00 15.7 27 Sudeste 61 Sur 0 -- -- 47
2021-02-21 02:00:00 16.9 19 Sudeste 53 Sudeste 0 -- -- 44
2021-02-21 01:00:00 17.4 17 Sudeste 51 Sudeste 0 -- -- 41
2021-02-21 00:00:00 18 23 Sudeste 49 Sudeste 0 -- -- 41
2021-02-20 23:00:00 17.7 14 Sudeste 47 Sudeste 0 -- -- 43
2021-02-20 22:00:00 19.2 22 Sudeste 53 Sudeste 0 -- -- 39
2021-02-20 21:00:00 19.2 19 Sudeste 50 Sur 0 -- -- 41
2021-02-20 20:00:00 20 25 Sudeste 59 Sudeste 0 -- -- 37
2021-02-20 19:00:00 20.1 24 Sur 49 Sur 0 -- -- 37
2021-02-20 18:00:00 21 19 Sudeste 56 Sur 0 -- -- 35
2021-02-20 17:00:00 21.4 19 Sudeste 50 Sudeste 0 -- -- 32
2021-02-20 16:00:00 21.4 22 Sudeste 59 Sudeste 0 -- -- 31
2021-02-20 15:00:00 21.4 21 Sudeste 56 Sudeste 0 -- -- 33
2021-02-20 14:00:00 20.9 24 Sudeste 67 Sur 0 -- -- 36
2021-02-20 13:00:00 20.2 25 Sudeste 67 Sudeste 0 -- -- 34
2021-02-20 12:00:00 20.2 26 Sudeste 71 Sur 0 -- -- 36
2021-02-20 11:00:00 19 26 Sudeste 67 Sudeste 0 -- -- 34
2021-02-20 10:00:00 18.1 28 Sudeste 58 Sudeste 0 -- -- 35
2021-02-20 09:00:00 18 24 Sudeste 58 Sudeste 0 -- -- 34
2021-02-20 08:00:00 18 25 Sudeste 58 Sur 0 -- -- 32
2021-02-20 07:00:00 18.4 30 Sur 61 Sur 0 -- -- 31
2021-02-20 06:00:00 17.6 15 Sudeste 41 Sudeste 0 -- -- 33
2021-02-20 05:00:00 16.9 14 Sudeste 87 Este 0 -- -- 38
2021-02-20 04:00:00 18.6 19 Sudeste 77 Sur 0 -- -- 31
2021-02-20 03:00:00 18.6 22 Sudeste 73 Sudeste 0 -- -- 33
2021-02-20 02:00:00 17.2 20 Este 49 Sudeste 0 -- -- 39
2021-02-20 01:00:00 17.5 15 Sudeste 49 Este 0 -- -- 39
2021-02-20 00:00:00 18.7 14 Sudeste 62 Sudeste 0 -- -- 34
2021-02-19 23:00:00 19.7 17 Sudeste 50 Sudeste 0 -- -- 34
2021-02-19 22:00:00 20.5 22 Sudeste 57 Sudeste 0 -- -- 30
2021-02-19 21:00:00 20.3 14 Sudeste 40 Sur 0 -- -- 32
2021-02-19 20:00:00 20.2 13 Sudeste 38 Sudeste 0 -- -- 33
2021-02-19 19:00:00 20.6 13 Sudeste 31 Sudeste 0 -- -- 32
2021-02-19 18:00:00 20.5 6 Sudeste 26 Sudeste 0 -- -- 31
2021-02-19 17:00:00 21 19 Sur 47 Sur 0 -- -- 28
2021-02-19 16:00:00 21 15 Sur 38 Sur 0 -- -- 32
2021-02-19 15:00:00 21 16 Sur 47 Sur 0 -- -- 34
2021-02-19 14:00:00 19.5 18 Sudoeste 56 Sur 0 -- -- 39
2021-02-19 13:00:00 18.7 29 Sur 62 Sur 0 -- -- 43
2021-02-19 12:00:00 18.4 10 Sur 34 Sur 0 -- -- 45
2021-02-19 11:00:00 17.5 10 Este 34 Sur 0 -- -- 47
2021-02-19 10:00:00 16.9 12 Sur 60 Sudoeste 0 -- -- 50
2021-02-19 09:00:00 15.8 27 Sur 56 Sur 0 -- -- 52
2021-02-19 08:00:00 13.8 6 Sur 22 Sudeste 0 -- -- 58
2021-02-19 07:00:00 14.3 8 Sudeste 21 Este 0 -- -- 60
2021-02-19 06:00:00 15.5 9 Sudeste 33 Sur 0 -- -- 57
2021-02-19 05:00:00 15.5 12 Sudeste 32 Sur 0 -- -- 57
2021-02-19 04:00:00 15.1 6 Sudeste 23 Sudoeste 0 -- -- 60
2021-02-19 03:00:00 13.7 12 Sur 25 Sudoeste 0 -- -- 69
2021-02-19 02:00:00 7.9 4 Este 11 Oeste 0 -- -- 96
2021-02-19 01:00:00 7.6 3 Sudeste 8 Sudoeste 0 -- -- 95
2021-02-19 00:00:00 8.6 2 Este 13 Este 0 -- -- 93
2021-02-18 23:00:00 9.8 6 Sudeste 13 Este 0 -- -- 90
2021-02-18 22:00:00 10.3 2 Sudeste 7 Este 0 -- -- 89
2021-02-18 21:00:00 10.5 2 Sudeste 5 Nordeste 0 -- -- 87
2021-02-18 20:00:00 10.5 2 Sur 5 Sur 0 -- -- 86
2021-02-18 19:00:00 10.5 3 Norte 9 Oeste 0 -- -- 85
2021-02-18 18:00:00 10.8 7 Noroeste 15 Noroeste 0 -- -- 88
2021-02-18 17:00:00 11.4 3 Norte 22 Noroeste 0 -- -- 83
2021-02-18 16:00:00 11.9 13 Noroeste 22 Noroeste 0 -- -- 84
2021-02-18 15:00:00 12.3 14 Noroeste 22 Noroeste 0 -- -- 81
2021-02-18 14:00:00 13 15 Noroeste 27 Noroeste 0 -- -- 80
2021-02-18 13:00:00 14.1 16 Noroeste 27 Noroeste 0 -- -- 75
2021-02-18 12:00:00 18.2 15 Oeste 32 Oeste 0 -- -- 55
2021-02-18 11:00:00 17.5 6 Nordeste 25 Este 0 -- -- 43
2021-02-18 10:00:00 15.3 10 Sudeste 21 Sur 0 -- -- 51
2021-02-18 09:00:00 13 3 Sudoeste 29 Este 0 -- -- 60
2021-02-18 08:00:00 14.9 12 Este 31 Este 0 -- -- 51
2021-02-18 07:00:00 14.9 11 Sudeste 32 Sudeste 0 -- -- 53
2021-02-18 06:00:00 15.3 15 Sudeste 38 Este 0 -- -- 53
2021-02-18 05:00:00 15.3 13 Sudeste 36 Sudeste 0 -- -- 54
2021-02-18 04:00:00 15.2 12 Sudeste 34 Sudeste 0 -- -- 57
2021-02-18 03:00:00 14.7 8 Sur 26 Sur 0 -- -- 61
2021-02-18 02:00:00 16.6 15 Sudeste 34 Sudeste 0 -- -- 53
2021-02-18 01:00:00 17.4 16 Sudeste 36 Sudeste 0 -- -- 52
2021-02-18 00:00:00 17.2 11 Sudeste 29 Sudeste 0 -- -- 52
2021-02-17 23:00:00 17.2 13 Sudeste 37 Este 0 -- -- 54
2021-02-17 22:00:00 16.8 10 Sudeste 41 Sudeste 0 -- -- 59
2021-02-17 21:00:00 17.4 9 Sudeste 28 Sudeste 0 -- -- 57
2021-02-17 20:00:00 17.5 12 Sudeste 30 Sur 0 -- -- 56
2021-02-17 19:00:00 17.5 9 Sudeste 28 Sudeste 0 -- -- 56
2021-02-17 18:00:00 17.7 8 Sur 18 Sudoeste 0 -- -- 55
2021-02-17 17:00:00 18.3 6 Sur 26 Sudeste 0 -- -- 55
2021-02-17 16:00:00 18 5 Sudeste 30 Sudeste 0 -- -- 54
2021-02-17 15:00:00 17.9 12 Sudoeste 40 Sur 0 -- -- 51
2021-02-17 14:00:00 18.8 18 Sudoeste 47 Sudoeste 0 -- -- 49
2021-02-17 13:00:00 18.2 15 Sudoeste 44 Sur 0 -- -- 50
2021-02-17 12:00:00 17 6 Este 25 Este 0 -- -- 59
2021-02-17 11:00:00 13.7 8 Sudeste 17 Este 0 -- -- 77
2021-02-17 10:00:00 8.6 2 Norte 8 Sur 0 -- -- 100
2021-02-17 09:00:00 6.1 3 Norte 5 Norte 0 -- -- 100
2021-02-17 08:00:00 6.2 2 Sudeste 9 Sudeste 0 -- -- 100
2021-02-17 07:00:00 6.3 6 Sudeste 10 Sudeste 0 -- -- 100
2021-02-17 06:00:00 5.8 0 Calma 4 Este 0 -- -- 100
2021-02-17 05:00:00 5.8 0 Calma 5 Este 0 -- -- 100
2021-02-17 04:00:00 6 4 Este 7 Este 0 -- -- 100
2021-02-17 03:00:00 6.1 0 Calma 4 Sudeste 0 -- -- 99
2021-02-17 02:00:00 6.5 3 Sudeste 6 Sudeste 0 -- -- 99
2021-02-17 01:00:00 7 0 Calma 3 Este 0 -- -- 99
2021-02-17 00:00:00 7.7 2 Sudeste 6 Sudeste 0 -- -- 98
2021-02-16 23:00:00 8.2 4 Este 6 Sudeste 0 -- -- 98
2021-02-16 22:00:00 9.1 4 Sudeste 8 Sudeste 0 -- -- 97
2021-02-16 21:00:00 10.2 3 Sudeste 6 Sudeste 0.4 -- -- 95
2021-02-16 20:00:00 11.5 0 Calma 6 Sur 1.8 -- -- 89
2021-02-16 19:00:00 12.6 3 Este 9 Nordeste 0 -- -- 77
2021-02-16 18:00:00 13 4 Este 8 Este 0 -- -- 74
2021-02-16 17:00:00 13.1 3 Sur 7 Sur 0 -- -- 77
2021-02-16 16:00:00 12.8 0 Calma 14 Norte 0 -- -- 74
2021-02-16 15:00:00 13.3 9 Norte 23 Noroeste 0 -- -- 72
2021-02-16 14:00:00 14.7 16 Noroeste 34 Oeste 0 -- -- 70
2021-02-16 13:00:00 16.7 21 Sudoeste 39 Sudoeste 0 -- -- 52
2021-02-16 12:00:00 15.2 6 Sudeste 31 Sudeste 0 -- -- 57
2021-02-16 11:00:00 14.5 11 Este 34 Sudeste 0 -- -- 56
2021-02-16 10:00:00 13.6 15 Sudeste 35 Sur 0 -- -- 59
2021-02-16 09:00:00 13.4 19 Sur 35 Sur 0 -- -- 58
2021-02-16 08:00:00 10 2 Sudeste 14 Este 0 -- -- 72
2021-02-16 07:00:00 12.5 9 Sudeste 33 Sudeste 0 -- -- 64
2021-02-16 06:00:00 12.9 14 Sudeste 28 Sur 0 -- -- 59
2021-02-16 05:00:00 11.9 3 Sur 36 Sudeste 0 -- -- 65
2021-02-16 04:00:00 13.3 15 Sudeste 43 Sur 0 -- -- 62
2021-02-16 03:00:00 13.7 16 Sur 41 Este 0 -- -- 61
2021-02-16 02:00:00 13.3 13 Sudeste 43 Sudeste 0 -- -- 64
2021-02-16 01:00:00 13.3 6 Sudeste 19 Sudeste 0 -- -- 63
2021-02-16 00:00:00 13.6 10 Sur 53 Este 0 -- -- 63
2021-02-15 23:00:00 13.8 17 Sudeste 58 Este 0 -- -- 62
2021-02-15 22:00:00 13.6 34 Este 65 Este 0 -- -- 62
2021-02-15 21:00:00 13.2 19 Sudeste 51 Este 0 -- -- 65
2021-02-15 20:00:00 13.1 21 Sudeste 46 Sudeste 0 -- -- 65
2021-02-15 19:00:00 13.1 19 Sudeste 45 Sudeste 0 -- -- 64
2021-02-15 18:00:00 14.2 13 Sudeste 37 Este 0 -- -- 60
2021-02-15 17:00:00 15.8 14 Sudeste 41 Este 0 -- -- 56
2021-02-15 16:00:00 16.4 24 Este 46 Este 0 -- -- 56
2021-02-15 15:00:00 17.1 14 Este 35 Este 0 -- -- 54
2021-02-15 14:00:00 17.3 18 Este 35 Este 0 -- -- 54
2021-02-15 13:00:00 15 12 Sudeste 42 Este 0 -- -- 60
2021-02-15 12:00:00 14.6 15 Sudeste 33 Este 0 -- -- 59
2021-02-15 11:00:00 13.5 11 Sudeste 33 Sudeste 0 -- -- 62
2021-02-15 10:00:00 11.5 11 Sudeste 39 Este 0 -- -- 69
2021-02-15 09:00:00 10.7 13 Sudeste 44 Sudeste 0 -- -- 71
2021-02-15 08:00:00 10.4 15 Sudeste 42 Este 0 -- -- 72
2021-02-15 07:00:00 10.4 13 Sudeste 38 Sudeste 0 -- -- 72
2021-02-15 06:00:00 10.7 17 Sudeste 38 Sudeste 0 -- -- 71
2021-02-15 05:00:00 11.1 17 Sudeste 42 Este 0 -- -- 71
2021-02-15 04:00:00 11.6 26 Este 54 Este 0 -- -- 69
2021-02-15 03:00:00 11.9 27 Este 56 Este 0 -- -- 69
2021-02-15 02:00:00 12.3 24 Este 49 Este 0 -- -- 69
2021-02-15 01:00:00 13 23 Este 49 Este 0 -- -- 67
2021-02-15 00:00:00 13.2 28 Este 53 Este 0 -- -- 67
2021-02-14 23:00:00 13.8 26 Este 55 Sudeste 0 -- -- 65
2021-02-14 22:00:00 14.4 32 Este 59 Sudeste 0 -- -- 63
2021-02-14 21:00:00 14.8 28 Este 60 Este 0 -- -- 63
2021-02-14 20:00:00 14.8 19 Este 47 Este 0 -- -- 63
2021-02-14 19:00:00 15 19 Sudeste 44 Sudeste 0 -- -- 63
2021-02-14 18:00:00 15.6 12 Sudeste 37 Este 0 -- -- 61
2021-02-14 17:00:00 17.2 7 Sudeste 32 Sudeste 0 -- -- 56
2021-02-14 16:00:00 18.1 14 Sudeste 36 Sudeste 0 -- -- 51
2021-02-14 15:00:00 18.5 11 Sudeste 33 Sudeste 0 -- -- 52
2021-02-14 14:00:00 17.8 16 Sudeste 40 Sudeste 0 -- -- 54
2021-02-14 13:00:00 16.6 20 Sudeste 44 Este 0 -- -- 56
2021-02-14 12:00:00 15.2 18 Este 43 Este 0 -- -- 62
2021-02-14 11:00:00 13 11 Sudeste 27 Sudeste 0 -- -- 72
2021-02-14 10:00:00 7.8 4 Sur 14 Sur 0 -- -- 100
2021-02-14 09:00:00 4.4 3 Sur 6 Sur 0 -- -- 100
2021-02-14 08:00:00 4.4 0 Calma 9 Sur 0 -- -- 100
2021-02-14 07:00:00 4.4 3 Sur 5 Sudeste 0 -- -- 100
2021-02-14 06:00:00 4.8 0 Calma 6 Sudeste 0 -- -- 99
2021-02-14 05:00:00 5.1 3 Sur 6 Sur 0 -- -- 99
2021-02-14 04:00:00 5.1 0 Calma 5 Sur 0 -- -- 98
2021-02-14 03:00:00 5.8 3 Sur 8 Sudeste 0 -- -- 98
2021-02-14 02:00:00 6.1 4 Sur 6 Sudeste 0 -- -- 98
2021-02-14 01:00:00 6.4 5 Sur 9 Sudeste 0 -- -- 98
2021-02-14 00:00:00 7 4 Sudeste 9 Sudeste 0 -- -- 97
2021-02-13 23:00:00 7.6 5 Sudeste 9 Sudeste 0 -- -- 95
2021-02-13 22:00:00 8.3 4 Sudeste 6 Sudeste 0 -- -- 93
2021-02-13 21:00:00 9.5 4 Sur 7 Sudeste 0 -- -- 89
2021-02-13 20:00:00 11.2 4 Sudeste 8 Sudeste 0 -- -- 88
2021-02-13 19:00:00 11.6 4 Sudeste 8 Este 0 -- -- 86
2021-02-13 18:00:00 12.9 4 Sudeste 7 Sudeste 0 -- -- 79
2021-02-13 17:00:00 15.7 4 Sudoeste 9 Oeste 0 -- -- 69
2021-02-13 16:00:00 15.6 2 Sudoeste 10 Sur 0 -- -- 68
2021-02-13 15:00:00 13.4 0 Calma 6 Este 0 -- -- 78
2021-02-13 14:00:00 12.5 4 Sudoeste 6 Sur 0 -- -- 85
2021-02-13 13:00:00 11.9 0 Calma 5 Noroeste 0 -- -- 85
2021-02-13 08:00:00 -- -- -- -- -- -- -- -- --
2021-02-13 07:00:00 6.7 0 Calma 8 Sur 0 -- -- 100
2021-02-13 06:00:00 7.1 3 Sudeste 9 Sudeste 0 -- -- 100
2021-02-13 05:00:00 7.5 2 Sudeste 5 Sur 0 -- -- 100
2021-02-13 04:00:00 7.8 0 Calma 2 Sudeste 0 -- -- 100
2021-02-13 03:00:00 8 0 Calma 4 Norte 0 -- -- 100
2021-02-13 02:00:00 8.1 3 Norte 5 Norte 0 -- -- 99
2021-02-13 01:00:00 8.2 0 Calma 4 Norte 0 -- -- 99
2021-02-13 00:00:00 9.2 0 Calma 12 Noroeste 0 -- -- 97
2021-02-12 23:00:00 10.1 5 Norte 11 Norte 0 -- -- 97
2021-02-12 22:00:00 10.1 3 Sudeste 5 Noroeste 0 -- -- 96
2021-02-12 21:00:00 10.6 3 Noroeste 12 Norte 0 -- -- 93
2021-02-12 20:00:00 11.6 5 Norte 23 Oeste 0 -- -- 89
2021-02-12 19:00:00 11.7 13 Noroeste 37 Noroeste 0 -- -- 91
2021-02-12 18:00:00 11.9 17 Noroeste 37 Noroeste 0 -- -- 93
2021-02-12 17:00:00 11.7 21 Noroeste 54 Noroeste 1.2 -- -- 96
2021-02-12 16:00:00 12 33 Noroeste 56 Noroeste 3.8 -- -- 96
2021-02-12 15:00:00 11.8 23 Noroeste 44 Noroeste 5.6 -- -- 97
2021-02-12 14:00:00 11.8 18 Noroeste 32 Noroeste 2.2 -- -- 96
2021-02-12 13:00:00 12.2 21 Noroeste 35 Oeste 0.6 -- -- 93
2021-02-12 12:00:00 11.8 19 Oeste 43 Oeste 1 -- -- 94
2021-02-12 11:00:00 12.1 12 Noroeste 24 Noroeste 1.4 -- -- 96
2021-02-12 10:00:00 12 3 Noroeste 8 Norte 0.6 -- -- 99
2021-02-12 09:00:00 11.9 3 Nordeste 13 Noroeste 0 -- -- 98
2021-02-12 08:00:00 12 8 Noroeste 12 Noroeste 0.6 -- -- 97
2021-02-12 07:00:00 12.3 10 Oeste 36 Oeste 1 -- -- 94
2021-02-12 06:00:00 13.7 16 Noroeste 28 Noroeste 1.6 -- -- 88
2021-02-12 05:00:00 16.3 16 Sur 36 Sudoeste 0 -- -- 67
2021-02-12 04:00:00 15.9 6 Sur 18 Sudeste 0 -- -- 68
2021-02-12 03:00:00 16.7 4 Sudeste 23 Este 0 -- -- 65
2021-02-12 02:00:00 15 7 Sudeste 25 Este 0 -- -- 73
2021-02-12 01:00:00 12.2 3 Sur 13 Sudeste 0 -- -- 85
2021-02-12 00:00:00 11.3 3 Oeste 14 Sudoeste 0 -- -- 89
2021-02-11 23:00:00 11.2 2 Noroeste 12 Sudeste 0 -- -- 87
2021-02-11 22:00:00 11.4 5 Sudeste 10 Sudeste 0 -- -- 87
2021-02-11 21:00:00 12.6 4 Sudeste 9 Sudeste 0 -- -- 82
2021-02-11 20:00:00 14 2 Sudeste 10 Este 0 -- -- 78
2021-02-11 19:00:00 15.4 4 Sur 10 Sudeste 0 -- -- 72
2021-02-11 18:00:00 17.5 2 Sudoeste 18 Sudoeste 0 -- -- 67
2021-02-11 17:00:00 18.7 2 Oeste 6 Sudoeste 0 -- -- 69
2021-02-11 16:00:00 19 2 Noroeste 11 Oeste 0 -- -- 61
2021-02-11 15:00:00 19 0 Calma 6 Sur 0 -- -- 57
2021-02-11 14:00:00 18.4 3 Nordeste 12 Este 0 -- -- 60
2021-02-11 13:00:00 17.9 5 Sudeste 23 Este 0 -- -- 60
2021-02-11 12:00:00 15.1 5 Este 15 Este 0 -- -- 71
2021-02-11 11:00:00 11.3 4 Noroeste 7 Noroeste 0 -- -- 87
2021-02-11 10:00:00 7.7 6 Norte 9 Norte 0 -- -- 98
2021-02-11 09:00:00 6 0 Calma 5 Nordeste 0 -- -- 100
2021-02-11 08:00:00 5 3 Este 6 Sudeste 0 -- -- 100
2021-02-11 07:00:00 3.7 0 Calma 5 Sur 0 -- -- 99
2021-02-11 06:00:00 3.7 0 Calma 6 Sudeste 0 -- -- 99
2021-02-11 05:00:00 3.9 2 Sudeste 5 Este 0 -- -- 98
2021-02-11 04:00:00 4.3 2 Sudoeste 9 Sur 0 -- -- 98
2021-02-11 03:00:00 4.7 4 Sur 8 Sudeste 0 -- -- 97
2021-02-11 02:00:00 5.3 5 Sur 8 Sudeste 0 -- -- 96
2021-02-11 01:00:00 5.9 5 Sudeste 9 Sudeste 0 -- -- 96
2021-02-11 00:00:00 6.9 5 Sudeste 10 Sudeste 0 -- -- 94
2021-02-10 23:00:00 8 4 Sur 8 Sudeste 0 -- -- 91
2021-02-10 22:00:00 9 4 Sudeste 8 Sudeste 0 -- -- 87
2021-02-10 21:00:00 10 3 Sudeste 9 Norte 0 -- -- 82
2021-02-10 20:00:00 10.8 5 Norte 15 Noroeste 0 -- -- 77
2021-02-10 19:00:00 11 2 Nordeste 26 Noroeste 0 -- -- 77
2021-02-10 18:00:00 11.8 10 Noroeste 36 Noroeste 0 -- -- 75
2021-02-10 17:00:00 12.6 18 Noroeste 33 Noroeste 0 -- -- 67
2021-02-10 16:00:00 12.8 13 Noroeste 29 Noroeste 0 -- -- 66
2021-02-10 15:00:00 11.4 6 Noroeste 23 Oeste 0 -- -- 73
2021-02-10 14:00:00 11.2 5 Noroeste 21 Noroeste 0.2 -- -- 72
2021-02-10 13:00:00 11.2 14 Noroeste 26 Noroeste 0 -- -- 69
2021-02-10 12:00:00 10.3 8 Noroeste 23 Noroeste 0 -- -- 75
2021-02-10 11:00:00 9.5 6 Norte 13 Norte 0 -- -- 80
2021-02-10 10:00:00 7.6 6 Sudeste 10 Sudeste 0 -- -- 95
2021-02-10 09:00:00 7.1 3 Sudeste 7 Este 0 -- -- 95
2021-02-10 08:00:00 7.3 6 Noroeste 13 Noroeste 0.2 -- -- 95
2021-02-10 07:00:00 6.9 0 Calma 10 Este 0 -- -- 93
2021-02-10 06:00:00 7 3 Sudeste 6 Este 0.2 -- -- 90
2021-02-10 05:00:00 7.4 3 Este 7 Este 0 -- -- 80
2021-02-10 04:00:00 7.3 5 Sur 13 Este 0 -- -- 78
2021-02-10 03:00:00 7.8 3 Sudoeste 12 Nordeste 0 -- -- 73
2021-02-10 02:00:00 10.2 3 Sur 20 Sudoeste 0 -- -- 61
2021-02-10 01:00:00 9.7 9 Sur 27 Sur 0 -- -- 65
2021-02-10 00:00:00 10.7 14 Sudoeste 32 Sur 0 -- -- 62
2021-02-09 23:00:00 11.1 14 Sudoeste 24 Sudoeste 0 -- -- 61
2021-02-09 22:00:00 10.2 4 Sur 13 Este 0 -- -- 65
2021-02-09 21:00:00 11.4 5 Sudeste 41 Sudoeste 0 -- -- 57
2021-02-09 20:00:00 11.8 19 Sudoeste 40 Sudoeste 0 -- -- 55
2021-02-09 19:00:00 11.5 12 Sudoeste 33 Oeste 0 -- -- 55
2021-02-09 18:00:00 12.6 18 Sudoeste 41 Sur 0 -- -- 53
2021-02-09 17:00:00 13.5 21 Sudoeste 40 Sur 0 -- -- 52
2021-02-09 16:00:00 12.3 9 Este 19 Este 0 -- -- 67
2021-02-09 15:00:00 12 5 Sur 33 Sudeste 0.8 -- -- 79
2021-02-09 14:00:00 13.6 6 Sur 31 Sur 0.2 -- -- 66
2021-02-09 13:00:00 14.7 9 Sur 36 Sur 0 -- -- 60
2021-02-09 12:00:00 14.8 11 Sur 33 Sur 0 -- -- 58
2021-02-09 11:00:00 13.8 7 Este 33 Sudeste 0 -- -- 60
2021-02-09 10:00:00 12.9 11 Sudeste 36 Sudeste 0 -- -- 63
2021-02-09 09:00:00 12.1 13 Sur 56 Sur 0 -- -- 64
2021-02-09 08:00:00 11.5 21 Sur 44 Sur 0 -- -- 64
2021-02-09 07:00:00 11.1 6 Este 35 Sur 0 -- -- 69
2021-02-09 06:00:00 11 5 Sur 29 Sur 0 -- -- 71
2021-02-09 05:00:00 9.2 7 Sudeste 15 Este 0 -- -- 79
2021-02-09 04:00:00 8 6 Sudeste 15 Sudeste 0 -- -- 90
2021-02-09 03:00:00 7.7 3 Sur 11 Sudeste 0 -- -- 95
2021-02-09 02:00:00 7.7 3 Sur 9 Este 0 -- -- 98
2021-02-09 01:00:00 7.5 3 Noroeste 8 Norte 0 -- -- 98
2021-02-09 00:00:00 7.2 4 Sudeste 9 Sur 0 -- -- 97
2021-02-08 23:00:00 7.9 2 Sur 9 Sur 0 -- -- 95
2021-02-08 22:00:00 9 0 Calma 6 Sudeste 0 -- -- 92
2021-02-08 21:00:00 10.4 3 Norte 17 Noroeste 0 -- -- 83
2021-02-08 20:00:00 11.1 7 Oeste 17 Oeste 0 -- -- 78
2021-02-08 19:00:00 11.3 10 Noroeste 22 Noroeste 0 -- -- 76
2021-02-08 18:00:00 11.9 11 Noroeste 27 Noroeste 0 -- -- 70
2021-02-08 17:00:00 12.8 7 Oeste 19 Oeste 0.2 -- -- 75
2021-02-08 16:00:00 11.7 3 Sur 13 Sudoeste 0.2 -- -- 85
2021-02-08 15:00:00 12.3 8 Norte 34 Noroeste 0 -- -- 73
2021-02-08 14:00:00 14.5 4 Norte 15 Noroeste 0 -- -- 63
2021-02-08 13:00:00 13.8 7 Oeste 21 Sudoeste 0 -- -- 69
2021-02-08 12:00:00 11.2 2 Sudeste 13 Este 0.2 -- -- 87
2021-02-08 11:00:00 9.3 3 Sudeste 10 Este 0.4 -- -- 99
2021-02-08 10:00:00 8.9 4 Sur 11 Este 1.4 -- -- 98
2021-02-08 09:00:00 8.6 5 Sudeste 8 Sudeste 1.2 -- -- 97
2021-02-08 08:00:00 8.5 4 Sur 5 Sur 0.2 -- -- 95
2021-02-08 07:00:00 8.6 0 Calma 7 Sur 0 -- -- 92
2021-02-08 06:00:00 9.3 4 Nordeste 15 Sudeste 0 -- -- 87
2021-02-08 05:00:00 9.7 4 Sudeste 15 Sudeste 0.6 -- -- 87
2021-02-08 04:00:00 10.3 5 Sur 20 Sur 0 -- -- 79
2021-02-08 03:00:00 9.7 4 Sudeste 14 Este 0 -- -- 82
2021-02-08 02:00:00 9.1 5 Sudeste 13 Sudeste 0 -- -- 81
2021-02-08 01:00:00 8.5 7 Este 22 Este 0 -- -- 83
2021-02-08 00:00:00 7.9 0 Calma 19 Este 0 -- -- 88
2021-02-07 23:00:00 7.4 4 Sudeste 8 Sudeste 0 -- -- 96
2021-02-07 22:00:00 7.5 2 Sudeste 6 Sur 0.4 -- -- 96
2021-02-07 21:00:00 7.6 2 Sudeste 9 Este 0.8 -- -- 92
2021-02-07 20:00:00 8.3 4 Sudeste 9 Sudeste 0.2 -- -- 85
2021-02-07 19:00:00 9 3 Sur 5 Sudoeste 0 -- -- 80
2021-02-07 18:00:00 10 2 Sur 9 Sur 0 -- -- 72
2021-02-07 17:00:00 10.5 6 Oeste 14 Oeste 0 -- -- 67
2021-02-07 16:00:00 11.3 7 Oeste 22 Oeste 0 -- -- 60
2021-02-07 15:00:00 11.8 9 Sudoeste 15 Sudoeste 0 -- -- 58
2021-02-07 14:00:00 11.8 8 Sudoeste 18 Sur 0 -- -- 62
2021-02-07 13:00:00 10.7 8 Sudoeste 14 Sudoeste 0 -- -- 67
2021-02-07 12:00:00 8.8 2 Este 7 Nordeste 0 -- -- 76
2021-02-07 11:00:00 7.2 3 Nordeste 6 Nordeste 0 -- -- 98
2021-02-07 10:00:00 6 0 Calma 3 Nordeste 0 -- -- 100
2021-02-07 09:00:00 5.6 0 Calma 3 Nordeste 0 -- -- 100
2021-02-07 08:00:00 5.6 0 Calma 4 Sudeste 0 -- -- 100
2021-02-07 07:00:00 5.6 0 Calma 4 Sudeste 0 -- -- 100
2021-02-07 06:00:00 5.6 0 Calma 6 Este 0.2 -- -- 100
2021-02-07 05:00:00 5.6 3 Sur 6 Norte 0.2 -- -- 100
2021-02-07 04:00:00 5.5 0 Calma 4 Este 0.2 -- -- 99
2021-02-07 03:00:00 5.6 0 Calma 4 Este 0.2 -- -- 98
2021-02-07 02:00:00 5.9 2 Sur 15 Noroeste 1 -- -- 97
2021-02-07 01:00:00 6.1 5 Norte 14 Oeste 0 -- -- 94
2021-02-07 00:00:00 6 5 Norte 14 Norte 0 -- -- 98
2021-02-06 23:00:00 6.2 6 Norte 9 Noroeste 0 -- -- 97
2021-02-06 22:00:00 6.9 7 Noroeste 16 Noroeste 0 -- -- 95
2021-02-06 21:00:00 7.1 3 Noroeste 12 Norte 0.6 -- -- 97
2021-02-06 20:00:00 7.5 5 Noroeste 16 Noroeste 0.4 -- -- 97
2021-02-06 19:00:00 7.6 7 Oeste 15 Oeste 1 -- -- 96
2021-02-06 18:00:00 7.9 5 Oeste 18 Oeste 0.2 -- -- 97
2021-02-06 17:00:00 8 12 Oeste 20 Oeste 0.2 -- -- 95
2021-02-06 16:00:00 8.4 13 Noroeste 35 Noroeste 0.4 -- -- 96
2021-02-06 15:00:00 8.4 23 Noroeste 39 Noroeste 1.4 -- -- 97
2021-02-06 14:00:00 8.9 21 Noroeste 41 Oeste 1.6 -- -- 98
2021-02-06 13:00:00 9.3 22 Noroeste 41 Oeste 3.2 -- -- 98
2021-02-06 12:00:00 9.9 24 Noroeste 41 Oeste 6.2 -- -- 99
2021-02-06 11:00:00 10.7 16 Oeste 25 Oeste 3.2 -- -- 100
2021-02-06 10:00:00 10.6 10 Noroeste 13 Noroeste 1.8 -- -- 100
2021-02-06 09:00:00 10.5 5 Noroeste 10 Noroeste 1.6 -- -- 100
2021-02-06 08:00:00 10.4 0 Calma 3 Norte 2.4 -- -- 100
2021-02-06 07:00:00 10.2 0 Calma 2 Sur 3.2 -- -- 100
2021-02-06 06:00:00 10.2 0 Calma 4 Este 1 -- -- 100
2021-02-06 05:00:00 10.3 2 Este 4 Este 0 -- -- 100
2021-02-06 04:00:00 10.4 0 Calma 5 Norte 0.2 -- -- 99
2021-02-06 03:00:00 10.4 0 Calma 4 Este 0 -- -- 99
2021-02-06 02:00:00 10.4 0 Calma 5 Este 0 -- -- 99
2021-02-06 01:00:00 10.5 0 Calma 6 Sudoeste 0 -- -- 99
2021-02-06 00:00:00 10.5 4 Sudoeste 5 Sudoeste 0 -- -- 99
2021-02-05 23:00:00 10.6 3 Nordeste 5 Este 0 -- -- 99
2021-02-05 22:00:00 10.5 2 Norte 8 Norte 0 -- -- 99
2021-02-05 21:00:00 10.5 5 Noroeste 11 Oeste 0 -- -- 99
2021-02-05 20:00:00 10.7 6 Noroeste 12 Norte 0 -- -- 99
2021-02-05 19:00:00 10.7 2 Oeste 16 Norte 0 -- -- 99
2021-02-05 18:00:00 10.7 9 Norte 16 Norte 0 -- -- 99
2021-02-05 17:00:00 11.1 6 Norte 12 Noroeste 0 -- -- 98
2021-02-05 16:00:00 11.3 5 Norte 8 Norte 0 -- -- 97
2021-02-05 15:00:00 11 3 Noroeste 4 Oeste 0 -- -- 98
2021-02-05 14:00:00 10.8 0 Calma 5 Norte 0 -- -- 97
2021-02-05 13:00:00 10.8 2 Oeste 10 Noroeste 0 -- -- 96
2021-02-05 12:00:00 10.6 2 Oeste 6 Noroeste 0 -- -- 96
2021-02-05 11:00:00 10.2 4 Norte 10 Norte 0 -- -- 98
2021-02-05 10:00:00 9.9 3 Oeste 6 Oeste 0.2 -- -- 99
2021-02-05 09:00:00 9.6 0 Calma 8 Norte 0 -- -- 99
2021-02-05 08:00:00 9.4 9 Norte 18 Norte 0.2 -- -- 99
2021-02-05 07:00:00 9.5 3 Sudoeste 10 Norte 0 -- -- 100
2021-02-05 06:00:00 9.6 0 Calma 6 Norte 0 -- -- 99
2021-02-05 05:00:00 9.6 0 Calma 4 Sudoeste 0 -- -- 99
2021-02-05 04:00:00 9.5 0 Calma 6 Norte 0 -- -- 99
2021-02-05 03:00:00 9.6 3 Norte 6 Norte 0 -- -- 99
2021-02-05 02:00:00 9.7 2 Sur 4 Sudoeste 0 -- -- 98
2021-02-05 01:00:00 9.6 0 Calma 7 Este 0 -- -- 98
2021-02-05 00:00:00 9.6 2 Sur 6 Este 0 -- -- 98
2021-02-04 23:00:00 9.6 2 Sur 8 Norte 0 -- -- 97
2021-02-04 22:00:00 9.4 9 Norte 22 Oeste 2 -- -- 97
2021-02-04 21:00:00 9.7 6 Noroeste 23 Noroeste 3.2 -- -- 94
2021-02-04 20:00:00 10.4 14 Oeste 30 Oeste 0.2 -- -- 90
2021-02-04 19:00:00 12 14 Oeste 23 Oeste 0 -- -- 79
2021-02-04 18:00:00 13 11 Oeste 18 Oeste 0 -- -- 77
2021-02-04 17:00:00 13.9 9 Oeste 17 Norte 0 -- -- 73
2021-02-04 16:00:00 15 9 Noroeste 15 Noroeste 0 -- -- 70
2021-02-04 15:00:00 15.1 3 Norte 5 Oeste 0 -- -- 71
2021-02-04 14:00:00 15 2 Norte 6 Oeste 0 -- -- 70
2021-02-04 13:00:00 15 2 Norte 5 Norte 0 -- -- 70
2021-02-04 12:00:00 14.1 0 Calma 5 Oeste 0 -- -- 73
2021-02-04 11:00:00 13.3 3 Sudoeste 7 Este 0 -- -- 76
2021-02-04 10:00:00 13.1 3 Sur 13 Noroeste 0 -- -- 74
2021-02-04 09:00:00 12.5 6 Sudeste 13 Este 0 -- -- 75
2021-02-04 08:00:00 12.2 4 Sur 10 Sudeste 0 -- -- 76
2021-02-04 07:00:00 12.9 2 Sur 7 Sur 0 -- -- 70
2021-02-04 06:00:00 13.9 5 Sur 18 Sur 0 -- -- 66
2021-02-04 05:00:00 13.3 10 Sur 20 Sur 0 -- -- 70
2021-02-04 04:00:00 14 10 Sur 29 Sudeste 0 -- -- 68
2021-02-04 03:00:00 13.9 9 Sudeste 22 Sudeste 0 -- -- 67
2021-02-04 02:00:00 13.8 11 Sur 24 Sudeste 0 -- -- 69
2021-02-04 01:00:00 14.3 11 Sudeste 28 Sudeste 0 -- -- 68
2021-02-04 00:00:00 14.8 7 Sudeste 35 Sudeste 0 -- -- 64
2021-02-03 23:00:00 15.1 14 Sudeste 36 Sur 0 -- -- 63
2021-02-03 22:00:00 15.4 15 Sudeste 30 Sudeste 0 -- -- 62
2021-02-03 21:00:00 15.1 11 Sudeste 26 Sur 0 -- -- 63
2021-02-03 20:00:00 15.1 8 Sur 16 Este 0 -- -- 65
2021-02-03 19:00:00 15.1 2 Oeste 5 Oeste 0 -- -- 64
2021-02-03 18:00:00 16.4 2 Oeste 12 Sur 0 -- -- 56
2021-02-03 17:00:00 17.7 10 Sur 21 Sur 0 -- -- 46
2021-02-03 16:00:00 18.1 9 Sur 30 Sur 0 -- -- 44
2021-02-03 15:00:00 19.1 17 Sudoeste 37 Sudoeste 0 -- -- 44
2021-02-03 14:00:00 18.7 21 Sudoeste 42 Sur 0 -- -- 42
2021-02-03 13:00:00 18.4 19 Oeste 51 Oeste 0 -- -- 44
2021-02-03 12:00:00 18.1 14 Oeste 37 Noroeste 0 -- -- 51
2021-02-03 11:00:00 17.4 10 Sudoeste 35 Sudoeste 0 -- -- 59
2021-02-03 10:00:00 16.7 12 Sudoeste 45 Sur 0 -- -- 60
2021-02-03 09:00:00 16.1 10 Sur 34 Sudoeste 0 -- -- 61
2021-02-03 08:00:00 16.2 10 Sudoeste 37 Sudoeste 0 -- -- 60
2021-02-03 07:00:00 16 9 Sudoeste 39 Oeste 0 -- -- 61
2021-02-03 06:00:00 15.9 10 Sudeste 35 Sur 0 -- -- 61
2021-02-03 05:00:00 16.2 6 Este 30 Sudeste 0 -- -- 58
2021-02-03 04:00:00 15.9 11 Sudeste 37 Sudeste 0 -- -- 57
2021-02-03 03:00:00 15.9 11 Sur 43 Sudeste 0 -- -- 57
2021-02-03 02:00:00 16.1 22 Sudeste 48 Sudeste 0 -- -- 56
2021-02-03 01:00:00 16.6 17 Sudeste 40 Este 0 -- -- 55
2021-02-03 00:00:00 16.2 8 Sur 28 Sur 0 -- -- 59
2021-02-02 23:00:00 16.7 8 Sudeste 35 Sur 0 -- -- 60
2021-02-02 22:00:00 17 9 Sudoeste 31 Sudoeste 0 -- -- 60
2021-02-02 21:00:00 16.7 8 Sur 24 Sudoeste 0 -- -- 60
2021-02-02 20:00:00 16.5 6 Nordeste 30 Este 0 -- -- 60
2021-02-02 19:00:00 16.8 9 Este 28 Sudoeste 0 -- -- 60
2021-02-02 18:00:00 15.5 9 Sudeste 24 Este 0 -- -- 69
2021-02-02 17:00:00 15.2 6 Sudeste 17 Sur 0.4 -- -- 76
2021-02-02 16:00:00 16.5 15 Oeste 36 Oeste 0.2 -- -- 66
2021-02-02 15:00:00 18.8 12 Sur 45 Sur 0 -- -- 55
2021-02-02 14:00:00 20.3 12 Sudoeste 25 Sur 0 -- -- 55
2021-02-02 13:00:00 18.9 10 Sudeste 39 Sur 0 -- -- 62
2021-02-02 12:00:00 17.2 14 Oeste 31 Sudoeste 0 -- -- 62
2021-02-02 11:00:00 12.8 3 Este 7 Nordeste 0 -- -- 93
2021-02-02 10:00:00 10.8 5 Sudeste 14 Este 0 -- -- 96
2021-02-02 09:00:00 9.5 2 Sudoeste 12 Este 0 -- -- 98
2021-02-02 08:00:00 8.9 3 Sur 18 Sudeste 0 -- -- 100
2021-02-02 07:00:00 8.2 6 Sudeste 12 Sudeste 0 -- -- 100
2021-02-02 06:00:00 8.2 2 Oeste 8 Sudoeste 0 -- -- 99
2021-02-02 05:00:00 8.6 2 Nordeste 13 Este 0 -- -- 99
2021-02-02 04:00:00 9.4 3 Sur 15 Este 0 -- -- 98
2021-02-02 03:00:00 9.9 6 Sudeste 12 Sudeste 0 -- -- 99
2021-02-02 02:00:00 10.4 3 Sudeste 8 Sudeste 0 -- -- 99
2021-02-02 01:00:00 11.1 0 Calma 8 Este 0 -- -- 99
2021-02-02 00:00:00 11.7 3 Sudeste 5 Sudeste 0 -- -- 98
2021-02-01 23:00:00 12.2 0 Calma 9 Sudeste 0 -- -- 98
2021-02-01 22:00:00 12.2 3 Sudeste 11 Sudeste 0.4 -- -- 98
2021-02-01 21:00:00 12.3 3 Sur 10 Sudeste 0.2 -- -- 97
2021-02-01 20:00:00 12.5 6 Sudeste 13 Este 1 -- -- 96
2021-02-01 19:00:00 13.3 0 Calma 5 Sudeste 0.8 -- -- 91
2021-02-01 18:00:00 14.6 3 Sudeste 8 Este 0 -- -- 83
2021-02-01 17:00:00 15.2 3 Sur 10 Noroeste 0 -- -- 80
2021-02-01 16:00:00 15.5 8 Noroeste 18 Noroeste 0 -- -- 76
2021-02-01 15:00:00 14.5 3 Noroeste 26 Oeste 0 -- -- 81
2021-02-01 14:00:00 14.3 13 Noroeste 44 Noroeste 0 -- -- 78
2021-02-01 13:00:00 14.8 19 Noroeste 32 Noroeste 0 -- -- 74
2021-02-01 12:00:00 14.7 14 Noroeste 24 Noroeste 0 -- -- 72
2021-02-01 11:00:00 13.8 11 Oeste 24 Oeste 0 -- -- 74
2021-02-01 10:00:00 13.1 11 Oeste 41 Noroeste 0 -- -- 75
2021-02-01 09:00:00 13.1 20 Noroeste 37 Noroeste 0 -- -- 73
2021-02-01 08:00:00 13.3 23 Noroeste 41 Noroeste 0 -- -- 68
2021-02-01 07:00:00 13.5 20 Noroeste 46 Oeste 0 -- -- 65
2021-02-01 06:00:00 13.4 17 Noroeste 37 Oeste 0 -- -- 71
2021-02-01 05:00:00 13.3 19 Noroeste 37 Oeste 0 -- -- 72
2021-02-01 04:00:00 12.9 14 Noroeste 34 Oeste 0 -- -- 75
2021-02-01 03:00:00 13.1 15 Noroeste 41 Noroeste 0 -- -- 75
2021-02-01 02:00:00 13.3 16 Noroeste 30 Oeste 0 -- -- 75
2021-02-01 01:00:00 13.1 19 Noroeste 48 Noroeste 0.2 -- -- 80
2021-02-01 00:00:00 11 9 Norte 13 Noroeste 0 -- -- 97
2021-01-31 23:00:00 10.2 2 Oeste 6 Sudeste 0 -- -- 99
2021-01-31 22:00:00 10.2 5 Este 9 Este 0 -- -- 98
2021-01-31 21:00:00 10.5 8 Noroeste 13 Noroeste 0 -- -- 99
2021-01-31 20:00:00 10.3 3 Noroeste 8 Sudeste 0 -- -- 96
2021-01-31 19:00:00 10.8 3 Sur 10 Sudeste 0 -- -- 93
2021-01-31 18:00:00 12.4 4 Sur 9 Sudeste 0 -- -- 89
2021-01-31 17:00:00 14.2 4 Sur 10 Sur 0 -- -- 85
2021-01-31 16:00:00 13.8 5 Sudeste 8 Este 0 -- -- 89
2021-01-31 15:00:00 11.6 3 Sudeste 9 Sudeste 0 -- -- 95
2021-01-31 14:00:00 11.1 5 Sudeste 10 Sudeste 0 -- -- 97
2021-01-31 13:00:00 10.4 3 Sur 10 Este 0.8 -- -- 97
2021-01-31 12:00:00 9.6 4 Sudeste 10 Noroeste 1.4 -- -- 96
2021-01-31 11:00:00 9.8 5 Norte 13 Oeste 2 -- -- 91
2021-01-31 10:00:00 10.4 3 Sudeste 9 Este 0 -- -- 88
2021-01-31 09:00:00 11.8 7 Oeste 24 Oeste 0 -- -- 71
2021-01-31 08:00:00 12.1 9 Noroeste 29 Noroeste 0 -- -- 62
2021-01-31 07:00:00 12.1 19 Noroeste 39 Noroeste 0 -- -- 65
2021-01-31 06:00:00 11.5 19 Noroeste 46 Oeste 0 -- -- 71
2021-01-31 05:00:00 11.3 22 Noroeste 62 Noroeste 0 -- -- 74
2021-01-31 04:00:00 11.4 27 Noroeste 54 Noroeste 0 -- -- 73
2021-01-31 03:00:00 11.8 27 Noroeste 50 Oeste 0 -- -- 70
2021-01-31 02:00:00 11.7 30 Noroeste 58 Noroeste 0 -- -- 70
2021-01-31 01:00:00 11.7 28 Noroeste 51 Noroeste 0 -- -- 70
2021-01-31 00:00:00 12.1 23 Noroeste 53 Oeste 0.2 -- -- 64
2021-01-30 23:00:00 11.9 19 Noroeste 43 Noroeste 0 -- -- 63
2021-01-30 22:00:00 11.7 20 Oeste 37 Oeste 0 -- -- 64
2021-01-30 21:00:00 11 15 Noroeste 27 Oeste 0 -- -- 68
2021-01-30 20:00:00 11.1 6 Noroeste 18 Noroeste 0 -- -- 69
2021-01-30 19:00:00 11.1 7 Sudoeste 15 Sudoeste 0 -- -- 71
2021-01-30 18:00:00 10.6 3 Oeste 14 Oeste 0 -- -- 81
2021-01-30 17:00:00 11.5 9 Oeste 15 Oeste 0 -- -- 72
2021-01-30 16:00:00 11.3 7 Oeste 21 Oeste 0 -- -- 76
2021-01-30 15:00:00 10.2 3 Sudeste 12 Noroeste 0.2 -- -- 88
2021-01-30 14:00:00 10.3 3 Norte 29 Oeste 0.2 -- -- 89
2021-01-30 13:00:00 11.8 9 Oeste 23 Norte 1.8 -- -- 85
2021-01-30 12:00:00 13.3 6 Norte 18 Norte 0 -- -- 78
2021-01-30 11:00:00 12.6 11 Noroeste 19 Noroeste 0 -- -- 82
2021-01-30 10:00:00 12 3 Este 8 Este 0 -- -- 96
2021-01-30 09:00:00 11.7 0 Calma 6 Este 0.4 -- -- 95
2021-01-30 08:00:00 12.3 2 Norte 29 Noroeste 0 -- -- 90
2021-01-30 07:00:00 12.4 4 Noroeste 19 Norte 0 -- -- 93
2021-01-30 06:00:00 12.6 5 Nordeste 17 Este 0 -- -- 91
2021-01-30 05:00:00 13.4 3 Nordeste 32 Oeste 0.6 -- -- 91
2021-01-30 04:00:00 16.6 8 Noroeste 37 Sur 0 -- -- 63
2021-01-30 03:00:00 17.3 28 Sudoeste 49 Sur 0 -- -- 57
2021-01-30 02:00:00 17.7 23 Sur 45 Sur 0 -- -- 58
2021-01-30 01:00:00 17.9 24 Sur 45 Sudoeste 0 -- -- 61
2021-01-30 00:00:00 16.4 9 Sudeste 35 Sudeste 0 -- -- 66